createdAt,value
2023-03-05T00:02:48.642Z,1.50
2023-03-05T00:05:57.614Z,1.80
2023-03-05T00:09:00.478Z,1.80
2023-03-05T00:12:03.076Z,2.00
2023-03-05T00:15:06.691Z,2.37
2023-03-05T00:18:10.601Z,2.43
2023-03-05T00:21:22.292Z,2.00
2023-03-05T00:24:24.885Z,2.10
2023-03-05T00:27:27.500Z,1.63
2023-03-05T00:30:30.162Z,1.80
2023-03-05T00:33:34.148Z,1.50
2023-03-05T00:36:40.836Z,1.70
2023-03-05T00:39:43.492Z,1.63
2023-03-05T00:42:46.525Z,1.57
2023-03-05T00:45:49.158Z,2.03
2023-03-05T00:48:53.076Z,1.70
2023-03-05T00:51:55.714Z,1.70
2023-03-05T00:54:58.408Z,1.53
2023-03-05T00:58:00.981Z,1.60
2023-03-05T01:01:04.484Z,1.43
2023-03-05T01:04:08.583Z,1.27
2023-03-05T01:07:11.143Z,1.40
2023-03-05T01:10:14.487Z,1.30
2023-03-05T01:13:17.048Z,1.40
2023-03-05T01:16:19.665Z,1.60
2023-03-05T01:19:23.629Z,1.50
2023-03-05T01:22:26.183Z,1.80
2023-03-05T01:25:28.901Z,1.70
2023-03-05T01:28:32.408Z,1.70
2023-03-05T01:31:35.053Z,1.97
2023-03-05T01:34:39.215Z,1.50
2023-03-05T01:37:41.786Z,2.10
2023-03-05T01:40:44.848Z,1.67
2023-03-05T01:43:48.517Z,1.70
2023-03-05T01:46:51.136Z,1.93
2023-03-05T01:49:55.287Z,1.70
2023-03-05T01:53:00.249Z,1.87
2023-03-05T01:56:03.329Z,1.90
2023-03-05T01:59:05.972Z,2.10
2023-03-05T02:02:08.992Z,2.63
2023-03-05T02:05:17.105Z,2.90
2023-03-05T02:08:22.904Z,2.47
2023-03-05T02:11:25.552Z,2.07
2023-03-05T02:14:28.967Z,2.20
2023-03-05T02:17:31.637Z,2.47
2023-03-05T02:20:46.760Z,2.43
2023-03-05T02:23:50.673Z,1.97
2023-03-05T02:26:53.259Z,2.07
2023-03-05T02:29:55.890Z,2.27
2023-03-05T02:32:58.875Z,2.30
2023-03-05T02:36:01.460Z,2.70
2023-03-05T02:39:05.661Z,2.90
2023-03-05T02:42:08.366Z,2.80
2023-03-05T02:45:12.155Z,2.97
2023-03-05T02:48:14.769Z,2.23
2023-03-05T02:51:18.011Z,2.20
2023-03-05T02:54:22.732Z,2.70
2023-03-05T02:57:25.454Z,2.93
2023-03-05T03:00:28.346Z,2.13
2023-03-05T03:03:31.389Z,2.00
2023-03-05T03:06:34.066Z,1.97
2023-03-05T03:09:38.168Z,1.50
2023-03-05T03:12:42.155Z,1.70
2023-03-05T03:15:45.061Z,1.77
2023-03-05T03:18:48.766Z,1.80
2023-03-05T03:21:51.533Z,1.60
2023-03-05T03:24:55.486Z,2.07
2023-03-05T03:27:58.053Z,1.80
2023-03-05T03:31:00.644Z,2.33
2023-03-05T03:34:03.256Z,2.07
2023-03-05T03:37:06.264Z,2.30
2023-03-05T03:40:12.729Z,2.20
2023-03-05T03:43:15.330Z,2.50
2023-03-05T03:46:17.925Z,2.03
2023-03-05T03:49:22.852Z,2.10
2023-03-05T03:52:26.308Z,2.40
2023-03-05T03:55:30.281Z,2.10
2023-03-05T03:58:33.194Z,2.03
2023-03-05T04:01:35.793Z,2.03
2023-03-05T04:04:38.487Z,2.10
2023-03-05T04:07:41.096Z,1.93
2023-03-05T04:10:45.380Z,3.17
2023-03-05T04:13:48.426Z,2.03
2023-03-05T04:16:51.059Z,2.17
2023-03-05T04:19:53.663Z,2.60
2023-03-05T04:22:56.361Z,2.20
2023-03-05T04:26:00.540Z,2.77
2023-03-05T04:29:03.128Z,2.30
2023-03-05T04:32:06.159Z,2.23
2023-03-05T04:35:09.354Z,2.13
2023-03-05T04:38:12.174Z,2.40
2023-03-05T04:41:16.127Z,2.50
2023-03-05T04:44:19.155Z,1.90
2023-03-05T04:47:21.916Z,2.03
2023-03-05T04:50:24.587Z,2.30
2023-03-05T04:53:27.274Z,2.73
2023-03-05T04:56:31.261Z,2.60
2023-03-05T04:59:33.984Z,2.83
2023-03-05T05:02:36.559Z,3.00
2023-03-05T05:05:39.222Z,2.53
2023-03-05T05:08:41.802Z,3.03
2023-03-05T05:11:45.707Z,2.43
2023-03-05T05:14:48.286Z,2.37
2023-03-05T05:17:51.042Z,1.93
2023-03-05T05:20:53.869Z,2.17
2023-03-05T05:23:56.450Z,2.13
2023-03-05T05:27:00.379Z,2.23
2023-03-05T05:30:04.036Z,2.28
2023-03-05T05:33:06.620Z,2.00
2023-03-05T05:36:11.961Z,2.00
2023-03-05T05:39:14.776Z,1.97
2023-03-05T05:42:19.020Z,2.63
2023-03-05T05:45:21.646Z,2.90
2023-03-05T05:48:24.560Z,2.97
2023-03-05T05:51:27.155Z,3.43
2023-03-05T05:54:29.847Z,3.70
2023-03-05T05:57:34.790Z,3.37
2023-03-05T06:00:37.401Z,3.27
2023-03-05T06:03:39.998Z,4.07
2023-03-05T06:06:42.712Z,6.17
2023-03-05T06:09:45.690Z,3.70
2023-03-05T06:12:49.643Z,3.63
2023-03-05T06:15:58.648Z,3.00
2023-03-05T06:19:04.473Z,3.53
2023-03-05T06:22:07.286Z,3.97
2023-03-05T06:25:12.968Z,6.00
2023-03-05T06:28:16.964Z,6.87
2023-03-05T06:31:22.278Z,4.07
2023-03-05T06:34:24.916Z,7.57
2023-03-05T06:37:27.494Z,2.83
2023-03-05T06:40:30.186Z,2.60
2023-03-05T06:43:35.475Z,2.27
2023-03-05T06:46:39.151Z,2.37
2023-03-05T06:49:41.781Z,2.40
2023-03-05T06:52:44.385Z,2.10
2023-03-05T06:55:47.393Z,1.53
2023-03-05T06:58:52.921Z,1.73
2023-03-05T07:01:55.527Z,1.70
2023-03-05T07:04:58.097Z,2.00
2023-03-05T07:08:00.676Z,1.97
2023-03-05T07:11:03.476Z,1.50
2023-03-05T07:14:07.633Z,1.53
2023-03-05T07:17:10.248Z,1.20
2023-03-05T07:20:13.530Z,1.47
2023-03-05T07:23:16.164Z,1.00
2023-03-05T07:26:18.752Z,1.27
2023-03-05T07:29:23.507Z,1.60
2023-03-05T07:32:26.111Z,1.57
2023-03-05T07:35:28.784Z,1.70
2023-03-05T07:38:31.663Z,2.00
2023-03-05T07:41:34.578Z,1.70
2023-03-05T07:44:38.929Z,2.10
2023-03-05T07:47:41.616Z,2.03
2023-03-05T07:50:44.270Z,2.67
2023-03-05T07:53:48.330Z,2.60
2023-03-05T07:56:50.950Z,2.00
2023-03-05T07:59:54.902Z,2.83
2023-03-05T08:02:57.478Z,2.53
2023-03-05T08:06:00.112Z,2.93
2023-03-05T08:09:02.725Z,2.77
2023-03-05T08:12:05.548Z,2.57
2023-03-05T08:15:10.559Z,1.93
2023-03-05T08:18:13.739Z,2.40
2023-03-05T08:21:20.996Z,2.53
2023-03-05T08:24:29.279Z,2.23
2023-03-05T08:27:32.235Z,1.70
2023-03-05T08:30:36.208Z,1.50
2023-03-05T08:33:39.618Z,1.90
2023-03-05T08:36:42.377Z,1.53
2023-03-05T08:39:44.971Z,1.60
2023-03-05T08:42:47.617Z,1.40
2023-03-05T08:45:53.459Z,1.30
2023-03-05T08:48:56.417Z,1.63
2023-03-05T08:51:58.975Z,1.80
2023-03-05T08:55:01.768Z,1.97
2023-03-05T08:58:04.417Z,2.00
2023-03-05T09:01:08.399Z,2.20
2023-03-05T09:04:11.018Z,2.70
2023-03-05T09:07:13.984Z,2.20
2023-03-05T09:10:18.274Z,2.03
2023-03-05T09:13:21.069Z,2.17
2023-03-05T09:16:25.011Z,1.77
2023-03-05T09:19:28.207Z,1.73
2023-03-05T09:22:30.936Z,1.63
2023-03-05T09:25:33.528Z,1.63
2023-03-05T09:28:36.374Z,1.33
2023-03-05T09:31:40.375Z,1.23
2023-03-05T09:34:43.025Z,1.60
2023-03-05T09:37:45.610Z,1.80
2023-03-05T09:40:56.168Z,1.40
2023-03-05T09:44:06.135Z,1.53
2023-03-05T09:47:23.822Z,1.40
2023-03-05T09:50:39.029Z,1.90
2023-03-05T09:53:47.512Z,1.80
2023-03-05T09:56:56.522Z,2.20
2023-03-05T10:00:02.474Z,1.67
2023-03-05T10:03:13.944Z,1.73
2023-03-05T10:06:21.253Z,2.13
2023-03-05T10:09:32.902Z,1.73
2023-03-05T10:12:42.410Z,2.13
2023-03-05T10:15:53.492Z,1.67
2023-03-05T10:19:05.750Z,2.27
2023-03-05T10:22:17.683Z,1.50
2023-03-05T10:25:27.351Z,3.27
2023-03-05T10:28:41.366Z,2.50
2023-03-05T10:31:57.131Z,1.70
2023-03-05T10:35:24.390Z,1.53
2023-03-05T10:39:00.022Z,1.60
2023-03-05T10:42:12.142Z,1.60
2023-03-05T10:45:17.933Z,1.20
2023-03-05T10:48:29.781Z,1.47
2023-03-05T10:51:38.120Z,1.30
2023-03-05T10:54:42.771Z,1.60
2023-03-05T10:57:45.761Z,1.53
2023-03-05T11:01:07.238Z,1.70
2023-03-05T11:04:27.871Z,1.60
2023-03-05T11:07:38.811Z,1.80
2023-03-05T11:10:41.438Z,1.60
2023-03-05T11:13:53.682Z,7.53
2023-03-05T11:16:56.540Z,6.40
2023-03-05T11:20:19.612Z,6.20
2023-03-05T11:23:25.317Z,2.20
2023-03-05T11:26:27.905Z,1.73
2023-03-05T11:29:32.109Z,1.60
2023-03-05T11:32:34.719Z,1.63
2023-03-05T11:35:39.330Z,1.40
2023-03-05T11:38:53.415Z,1.20
2023-03-05T11:42:00.270Z,1.60
2023-03-05T11:45:05.260Z,1.20
2023-03-05T11:48:13.152Z,1.40
2023-03-05T11:51:21.281Z,1.50
2023-03-05T11:54:31.548Z,1.50
2023-03-05T11:57:40.521Z,1.17
2023-03-05T12:00:45.909Z,1.20
2023-03-05T12:03:49.777Z,1.00
2023-03-05T12:06:55.174Z,0.90
2023-03-05T12:09:59.388Z,0.93
2023-03-05T12:13:12.664Z,1.00
2023-03-05T12:16:24.316Z,0.80
2023-03-05T12:19:40.456Z,0.90
2023-03-05T12:22:44.602Z,1.10
2023-03-05T12:25:50.792Z,1.00
2023-03-05T12:28:57.440Z,1.20
2023-03-05T12:32:01.453Z,1.10
2023-03-05T12:35:05.199Z,1.40
2023-03-05T12:38:31.117Z,1.80
2023-03-05T12:41:37.466Z,1.33
2023-03-05T12:44:40.250Z,1.50
2023-03-05T12:47:43.901Z,1.30
2023-03-05T12:50:58.590Z,1.33
2023-03-05T12:54:23.456Z,2.20
2023-03-05T12:57:29.485Z,1.53
2023-03-05T13:00:41.463Z,1.47
2023-03-05T13:03:48.235Z,1.30
2023-03-05T13:07:00.604Z,2.50
2023-03-05T13:10:03.246Z,4.70
2023-03-05T13:13:07.570Z,1.30
2023-03-05T13:16:18.589Z,1.50
2023-03-05T13:19:21.928Z,2.27
2023-03-05T13:22:25.536Z,11.03
2023-03-05T13:25:28.508Z,35.73
2023-03-05T13:28:33.774Z,3.77
2023-03-05T13:31:37.605Z,0.97
2023-03-05T13:34:48.166Z,1.27
2023-03-05T13:37:51.028Z,1.30
2023-03-05T13:41:21.832Z,1.30
2023-03-05T13:44:25.796Z,1.10
2023-03-05T13:47:31.624Z,1.07
2023-03-05T13:50:36.185Z,11.97
2023-03-05T13:53:38.809Z,1.70
2023-03-05T13:56:54.146Z,2.37
2023-03-05T13:59:58.129Z,1.00
2023-03-05T14:03:03.162Z,0.90
2023-03-05T14:06:09.939Z,1.07
2023-03-05T14:09:21.344Z,1.10
2023-03-05T14:12:28.112Z,1.10
2023-03-05T14:15:34.119Z,1.10
2023-03-05T14:18:37.906Z,1.10
2023-03-05T14:21:45.899Z,1.93
2023-03-05T14:24:53.000Z,14.83
2023-03-05T14:27:55.671Z,9.23
2023-03-05T14:30:59.663Z,1.30
2023-03-05T14:34:05.549Z,1.17
2023-03-05T14:37:20.093Z,1.03
2023-03-05T14:40:27.176Z,1.20
2023-03-05T14:43:29.739Z,1.33
2023-03-05T14:46:33.759Z,1.20
2023-03-05T14:49:36.439Z,1.00
2023-03-05T14:52:39.088Z,1.30
2023-03-05T14:55:43.682Z,1.23
2023-03-05T14:58:46.361Z,1.20
2023-03-05T15:01:51.330Z,1.17
2023-03-05T15:04:54.074Z,1.20
2023-03-05T15:07:56.889Z,1.20
2023-03-05T15:11:00.962Z,1.20
2023-03-05T15:14:03.535Z,1.03
2023-03-05T15:17:07.503Z,1.00
2023-03-05T15:20:15.656Z,1.13
2023-03-05T15:23:18.389Z,1.20
2023-03-05T15:26:21.706Z,1.93
2023-03-05T15:29:24.288Z,1.40
2023-03-05T15:32:29.090Z,1.10
2023-03-05T15:35:31.934Z,1.03
2023-03-05T15:38:34.572Z,1.10
2023-03-05T15:41:37.180Z,2.33
2023-03-05T15:44:40.247Z,1.57
2023-03-05T15:47:44.205Z,1.10
2023-03-05T15:50:46.826Z,1.20
2023-03-05T15:53:49.430Z,1.10
2023-03-05T15:56:53.009Z,1.30
2023-03-05T15:59:55.902Z,1.77
2023-03-05T16:02:59.926Z,1.70
2023-03-05T16:06:04.965Z,1.50
2023-03-05T16:09:07.682Z,1.60
2023-03-05T16:12:13.547Z,1.97
2023-03-05T16:15:18.257Z,1.70
2023-03-05T16:18:24.204Z,2.07
2023-03-05T16:21:26.878Z,1.50
2023-03-05T16:24:29.467Z,1.93
2023-03-05T16:27:32.189Z,2.10
2023-03-05T16:30:34.754Z,1.80
2023-03-05T16:33:38.696Z,2.07
2023-03-05T16:36:42.365Z,1.63
2023-03-05T16:39:45.085Z,1.70
2023-03-05T16:42:47.670Z,1.60
2023-03-05T16:45:50.250Z,1.47
2023-03-05T16:48:54.646Z,1.80
2023-03-05T16:51:59.397Z,3.53
2023-03-05T16:55:04.384Z,2.87
2023-03-05T16:58:07.114Z,3.97
2023-03-05T17:01:11.195Z,3.17
2023-03-05T17:04:15.302Z,9.10
2023-03-05T17:07:18.169Z,2.03
2023-03-05T17:10:20.775Z,1.60
2023-03-05T17:13:23.343Z,1.90
2023-03-05T17:16:26.071Z,1.80
2023-03-05T17:19:30.048Z,1.63
2023-03-05T17:22:32.667Z,1.90
2023-03-05T17:25:35.246Z,1.60
2023-03-05T17:28:37.849Z,1.67
2023-03-05T17:31:40.710Z,1.43
2023-03-05T17:34:44.703Z,2.00
2023-03-05T17:37:47.384Z,1.80
2023-03-05T17:40:49.997Z,1.67
2023-03-05T17:43:52.592Z,2.20
2023-03-05T17:46:55.177Z,1.60
2023-03-05T17:49:59.390Z,2.80
2023-03-05T17:53:02.036Z,3.40
2023-03-05T17:56:07.776Z,1.60
2023-03-05T17:59:10.506Z,1.83
2023-03-05T18:02:13.789Z,2.20
2023-03-05T18:05:18.291Z,2.40
2023-03-05T18:08:20.951Z,4.40
2023-03-05T18:11:23.677Z,3.63
2023-03-05T18:14:26.682Z,2.80
2023-03-05T18:17:29.412Z,2.30
2023-03-05T18:20:37.068Z,2.13
2023-03-05T18:23:39.711Z,2.00
2023-03-05T18:26:42.434Z,2.47
2023-03-05T18:29:44.990Z,5.73
2023-03-05T18:32:47.577Z,5.57
2023-03-05T18:35:52.871Z,5.77
2023-03-05T18:38:57.687Z,3.00
2023-03-05T18:42:00.468Z,3.00
2023-03-05T18:45:03.566Z,6.13
2023-03-05T18:48:06.300Z,8.57
2023-03-05T18:51:14.981Z,4.90
2023-03-05T18:54:17.567Z,3.90
2023-03-05T18:57:20.149Z,4.33
2023-03-05T19:00:26.600Z,8.47
2023-03-05T19:03:29.237Z,5.20
2023-03-05T19:06:34.889Z,4.13
2023-03-05T19:09:52.076Z,2.80
2023-03-05T19:13:05.256Z,2.90
2023-03-05T19:16:12.951Z,2.50
2023-03-05T19:19:16.543Z,3.20
2023-03-05T19:22:21.365Z,3.50
2023-03-05T19:25:24.146Z,4.10
2023-03-05T19:28:27.639Z,4.33
2023-03-05T19:31:30.397Z,4.33
2023-03-05T19:34:33.834Z,5.03
2023-03-05T19:37:37.770Z,6.87
2023-03-05T19:40:41.767Z,8.70
2023-03-05T19:43:45.031Z,9.63
2023-03-05T19:46:48.527Z,9.47
2023-03-05T19:49:51.123Z,12.53
2023-03-05T19:52:55.108Z,12.93
2023-03-05T19:55:57.679Z,14.07
2023-03-05T19:59:00.243Z,9.53
2023-03-05T20:02:03.109Z,8.73
2023-03-05T20:05:06.378Z,10.70
2023-03-05T20:08:10.330Z,12.20
2023-03-05T20:11:15.365Z,11.10
2023-03-05T20:14:18.175Z,13.20
2023-03-05T20:17:20.787Z,11.97
2023-03-05T20:20:23.658Z,13.30
2023-03-05T20:23:28.743Z,13.47
2023-03-05T20:26:33.613Z,18.03
2023-03-05T20:29:36.198Z,15.80
2023-03-05T20:32:38.846Z,15.03
2023-03-05T20:35:41.476Z,14.60
2023-03-05T20:38:45.749Z,12.70
2023-03-05T20:41:49.219Z,12.90
2023-03-05T20:44:52.113Z,13.37
2023-03-05T20:47:54.839Z,13.27
2023-03-05T20:50:58.038Z,13.57
2023-03-05T20:54:03.985Z,13.37
2023-03-05T20:57:06.678Z,12.73
2023-03-05T21:00:10.705Z,13.53
2023-03-05T21:03:13.330Z,16.07
2023-03-05T21:06:15.977Z,14.73
2023-03-05T21:09:19.921Z,13.70
2023-03-05T21:12:22.480Z,14.00
2023-03-05T21:15:27.727Z,12.50
2023-03-05T21:18:31.078Z,12.67
2023-03-05T21:21:33.794Z,12.77
2023-03-05T21:24:52.153Z,13.60
2023-03-05T21:27:57.290Z,13.20
2023-03-05T21:31:06.152Z,13.80
2023-03-05T21:34:08.753Z,13.33
2023-03-05T21:37:11.522Z,14.43
2023-03-05T21:40:17.632Z,14.00
2023-03-05T21:43:22.407Z,14.37
2023-03-05T21:46:25.035Z,14.43
2023-03-05T21:49:27.649Z,13.87
2023-03-05T21:52:30.237Z,14.20
2023-03-05T21:55:43.083Z,15.00
2023-03-05T21:58:45.810Z,14.80
2023-03-05T22:01:48.455Z,14.27
2023-03-05T22:04:51.312Z,14.07
2023-03-05T22:07:53.945Z,14.07
2023-03-05T22:10:57.992Z,13.57
2023-03-05T22:14:00.598Z,14.63
2023-03-05T22:17:03.347Z,15.00
2023-03-05T22:20:06.737Z,14.77
2023-03-05T22:23:09.356Z,15.30
2023-03-05T22:26:13.389Z,14.90
2023-03-05T22:29:17.329Z,14.83
2023-03-05T22:32:19.982Z,15.37
2023-03-05T22:35:22.695Z,15.87
2023-03-05T22:38:26.199Z,14.97
2023-03-05T22:41:30.131Z,16.77
2023-03-05T22:44:32.752Z,15.07
2023-03-05T22:47:35.770Z,14.73
2023-03-05T22:50:38.426Z,13.87
2023-03-05T22:53:41.359Z,13.30
2023-03-05T22:56:45.296Z,13.03
2023-03-05T22:59:49.627Z,11.03
2023-03-05T23:02:52.584Z,10.83
2023-03-05T23:05:55.315Z,10.70
2023-03-05T23:08:57.966Z,10.53
2023-03-05T23:12:01.900Z,11.27
2023-03-05T23:15:06.914Z,10.60
2023-03-05T23:18:09.590Z,9.87
2023-03-05T23:21:12.247Z,9.67
2023-03-05T23:24:14.826Z,10.23
2023-03-05T23:27:19.748Z,10.20
2023-03-05T23:30:23.403Z,10.63
2023-03-05T23:33:26.125Z,10.13
2023-03-05T23:36:28.696Z,9.97
2023-03-05T23:39:31.471Z,11.73
2023-03-05T23:42:35.409Z,11.13
2023-03-05T23:45:38.720Z,11.60
2023-03-05T23:48:41.593Z,11.57
2023-03-05T23:51:44.184Z,12.10
2023-03-05T23:54:46.768Z,11.67
2023-03-05T23:57:50.864Z,11.50
